createdAt,value
2023-05-13T00:00:05.999Z,101494.06
2023-05-13T00:03:09.499Z,101489.38
2023-05-13T00:06:12.720Z,101494.03
2023-05-13T00:09:15.986Z,101497.84
2023-05-13T00:12:18.996Z,101495.41
2023-05-13T00:15:23.388Z,101488.28
2023-05-13T00:18:26.709Z,101489.91
2023-05-13T00:21:29.804Z,101490.94
2023-05-13T00:24:32.886Z,101490.25
2023-05-13T00:27:36.081Z,101488.56
2023-05-13T00:30:42.085Z,101494.03
2023-05-13T00:33:46.600Z,101487.94
2023-05-13T00:36:50.052Z,101493.63
2023-05-13T00:39:53.232Z,101502.09
2023-05-13T00:42:56.665Z,101497.91
2023-05-13T00:46:01.430Z,101495.28
2023-05-13T00:49:06.002Z,101510.38
2023-05-13T00:52:09.598Z,101506.22
2023-05-13T00:55:14.546Z,101509.78
2023-05-13T00:58:18.111Z,101504.88
2023-05-13T01:01:32.092Z,101510.97
2023-05-13T01:04:44.545Z,101513.69
2023-05-13T01:07:56.701Z,101512.13
2023-05-13T01:11:18.789Z,101522.44
2023-05-13T01:14:27.530Z,101520.38
2023-05-13T01:17:37.093Z,101526.44
2023-05-13T01:20:43.763Z,101518.91
2023-05-13T01:23:48.274Z,101522.72
2023-05-13T01:26:51.652Z,101528.59
2023-05-13T01:29:56.480Z,101535.28
2023-05-13T01:33:04.476Z,101534.66
2023-05-13T01:36:09.176Z,101534.47
2023-05-13T01:39:15.169Z,101534.47
2023-05-13T01:42:18.374Z,101536.44
2023-05-13T01:45:21.471Z,101538.97
2023-05-13T01:48:25.414Z,101539.94
2023-05-13T01:51:28.425Z,101536.56
2023-05-13T01:54:33.056Z,101534.56
2023-05-13T01:57:41.564Z,101538.69
2023-05-13T02:00:44.747Z,101535.13
2023-05-13T02:03:47.909Z,101538.91
2023-05-13T02:06:51.071Z,101533.66
2023-05-13T02:09:59.584Z,101541.00
2023-05-13T02:13:03.862Z,101536.06
2023-05-13T02:16:07.985Z,101536.19
2023-05-13T02:19:11.092Z,101542.78
2023-05-13T02:22:14.337Z,101544.13
2023-05-13T02:25:18.943Z,101538.38
2023-05-13T02:28:21.934Z,101547.72
2023-05-13T02:31:24.945Z,101543.31
2023-05-13T02:34:28.246Z,101549.19
2023-05-13T02:37:31.494Z,101548.13
2023-05-13T02:40:39.790Z,101551.88
2023-05-13T02:43:43.349Z,101542.25
2023-05-13T02:46:46.823Z,101541.41
2023-05-13T02:49:49.945Z,101539.97
2023-05-13T02:52:53.128Z,101552.09
2023-05-13T02:55:57.624Z,101547.47
2023-05-13T02:59:02.340Z,101549.53
2023-05-13T03:02:05.799Z,101556.84
2023-05-13T03:05:09.926Z,101546.16
2023-05-13T03:08:13.044Z,101562.19
2023-05-13T03:11:17.353Z,101552.84
2023-05-13T03:14:20.541Z,101562.88
2023-05-13T03:17:24.874Z,101562.53
2023-05-13T03:20:28.053Z,101558.44
2023-05-13T03:23:31.533Z,101558.00
2023-05-13T03:26:37.254Z,101565.69
2023-05-13T03:29:40.959Z,101574.66
2023-05-13T03:32:44.571Z,101575.31
2023-05-13T03:35:49.780Z,101574.59
2023-05-13T03:38:56.289Z,101579.88
2023-05-13T03:42:01.091Z,101574.88
2023-05-13T03:45:05.667Z,101573.22
2023-05-13T03:48:11.803Z,101577.78
2023-05-13T03:51:16.086Z,101573.59
2023-05-13T03:54:19.337Z,101577.13
2023-05-13T03:57:24.267Z,101585.91
2023-05-13T04:00:27.310Z,101582.56
2023-05-13T04:03:31.299Z,101596.75
2023-05-13T04:06:34.399Z,101600.00
2023-05-13T04:09:40.001Z,101607.19
2023-05-13T04:12:44.555Z,101607.84
2023-05-13T04:15:47.535Z,101605.97
2023-05-13T04:18:50.644Z,101611.09
2023-05-13T04:21:54.021Z,101605.84
2023-05-13T04:24:59.529Z,101608.09
2023-05-13T04:28:04.033Z,101609.38
2023-05-13T04:31:14.980Z,101614.22
2023-05-13T04:34:18.123Z,101618.03
2023-05-13T04:37:23.373Z,101620.53
2023-05-13T04:40:28.790Z,101624.72
2023-05-13T04:43:36.390Z,101627.03
2023-05-13T04:46:40.505Z,101626.66
2023-05-13T04:49:43.797Z,101629.63
2023-05-13T04:52:47.643Z,101628.47
2023-05-13T04:55:57.195Z,101630.47
2023-05-13T04:59:04.584Z,101636.59
2023-05-13T05:02:07.719Z,101637.78
2023-05-13T05:05:11.356Z,101637.50
2023-05-13T05:08:14.526Z,101644.94
2023-05-13T05:11:17.714Z,101640.34
2023-05-13T05:14:22.249Z,101634.50
2023-05-13T05:17:27.825Z,101636.59
2023-05-13T05:20:31.433Z,101643.28
2023-05-13T05:23:36.473Z,101649.25
2023-05-13T05:26:41.142Z,101650.19
2023-05-13T05:29:47.223Z,101647.38
2023-05-13T05:32:51.329Z,101647.34
2023-05-13T05:35:54.556Z,101653.50
2023-05-13T05:38:59.157Z,101655.06
2023-05-13T05:42:08.713Z,101648.81
2023-05-13T05:45:14.049Z,101656.75
2023-05-13T05:48:18.034Z,101657.75
2023-05-13T05:51:21.130Z,101656.97
2023-05-13T05:54:24.963Z,101657.97
2023-05-13T05:57:28.753Z,101656.09
2023-05-13T06:00:33.828Z,101657.84
2023-05-13T06:03:37.254Z,101655.22
2023-05-13T06:06:40.706Z,101664.94
2023-05-13T06:09:43.996Z,101671.44
2023-05-13T06:12:47.124Z,101665.72
2023-05-13T06:15:51.652Z,101665.59
2023-05-13T06:18:54.942Z,101666.31
2023-05-13T06:21:58.006Z,101664.41
2023-05-13T06:25:01.075Z,101672.91
2023-05-13T06:28:06.135Z,101669.16
2023-05-13T06:31:10.475Z,101666.28
2023-05-13T06:34:16.588Z,101665.09
2023-05-13T06:37:20.074Z,101666.47
2023-05-13T06:40:23.792Z,101657.56
2023-05-13T06:43:27.844Z,101653.16
2023-05-13T06:46:35.643Z,101651.59
2023-05-13T06:49:38.712Z,101649.81
2023-05-13T06:52:42.141Z,101640.88
2023-05-13T06:55:48.483Z,101637.91
2023-05-13T06:58:51.832Z,101635.59
2023-05-13T07:01:56.203Z,101634.59
2023-05-13T07:04:59.323Z,101638.50
2023-05-13T07:08:06.611Z,101637.25
2023-05-13T07:11:09.717Z,101632.44
2023-05-13T07:14:12.741Z,101628.81
2023-05-13T07:17:17.967Z,101631.63
2023-05-13T07:20:22.800Z,101636.22
2023-05-13T07:23:26.629Z,101631.31
2023-05-13T07:26:29.732Z,101619.75
2023-05-13T07:29:32.984Z,101625.16
2023-05-13T07:32:37.360Z,101619.53
2023-05-13T07:35:40.757Z,101639.44
2023-05-13T07:38:44.322Z,101622.91
2023-05-13T07:41:47.723Z,101614.78
2023-05-13T07:44:50.867Z,101613.97
2023-05-13T07:47:55.292Z,101617.88
2023-05-13T07:50:58.740Z,101620.28
2023-05-13T07:54:01.880Z,101620.97
2023-05-13T07:57:04.936Z,101619.06
2023-05-13T08:00:09.639Z,101623.59
2023-05-13T08:03:20.030Z,101602.34
2023-05-13T08:06:23.131Z,101622.91
2023-05-13T08:09:26.122Z,101617.50
2023-05-13T08:12:29.236Z,101616.16
2023-05-13T08:15:32.340Z,101624.75
2023-05-13T08:18:36.774Z,101620.09
2023-05-13T08:21:40.111Z,101626.19
2023-05-13T08:24:43.491Z,101627.34
2023-05-13T08:27:46.601Z,101624.16
2023-05-13T08:30:49.667Z,101618.88
2023-05-13T08:33:54.611Z,101623.31
2023-05-13T08:36:57.665Z,101627.47
2023-05-13T08:40:01.570Z,101623.00
2023-05-13T08:43:06.203Z,101624.53
2023-05-13T08:46:11.832Z,101620.03
2023-05-13T08:49:16.769Z,101625.53
2023-05-13T08:52:22.594Z,101636.78
2023-05-13T08:55:27.757Z,101632.53
2023-05-13T08:58:30.836Z,101637.22
2023-05-13T09:01:34.103Z,101632.75
2023-05-13T09:04:41.664Z,101618.84
2023-05-13T09:07:44.952Z,101613.25
2023-05-13T09:10:48.217Z,101620.75
2023-05-13T09:13:59.479Z,101618.00
2023-05-13T09:17:03.056Z,101620.06
2023-05-13T09:20:12.106Z,101610.25
2023-05-13T09:23:15.865Z,101616.84
2023-05-13T09:26:29.151Z,101598.31
2023-05-13T09:29:33.294Z,101598.72
2023-05-13T09:32:36.682Z,101599.09
2023-05-13T09:35:49.066Z,101601.75
2023-05-13T09:38:56.674Z,101606.47
2023-05-13T09:41:59.884Z,101593.03
2023-05-13T09:45:07.775Z,101602.13
2023-05-13T09:48:11.325Z,101595.59
2023-05-13T09:51:16.605Z,101599.81
2023-05-13T09:54:19.940Z,101602.91
2023-05-13T09:57:23.079Z,101599.22
2023-05-13T10:00:32.564Z,101588.91
2023-05-13T10:03:39.029Z,101587.97
2023-05-13T10:06:43.908Z,101578.53
2023-05-13T10:09:47.581Z,101581.25
2023-05-13T10:12:52.530Z,101579.09
2023-05-13T10:15:56.952Z,101577.09
2023-05-13T10:19:00.445Z,101576.78
2023-05-13T10:22:05.468Z,101588.06
2023-05-13T10:25:09.702Z,101586.03
2023-05-13T10:28:13.615Z,101575.59
2023-05-13T10:31:17.391Z,101581.28
2023-05-13T10:34:20.733Z,101577.25
2023-05-13T10:37:51.627Z,101569.25
2023-05-13T10:41:13.217Z,101584.22
2023-05-13T10:44:16.491Z,101579.06
2023-05-13T10:47:19.582Z,101587.53
2023-05-13T10:50:26.728Z,101590.06
2023-05-13T10:53:33.142Z,101572.91
2023-05-13T10:56:36.286Z,101567.44
2023-05-13T11:00:19.140Z,101576.63
2023-05-13T11:03:31.089Z,101571.78
2023-05-13T11:06:37.225Z,101576.44
2023-05-13T11:09:41.725Z,101576.47
2023-05-13T11:13:24.554Z,101573.72
2023-05-13T11:16:27.731Z,101570.16
2023-05-13T11:19:33.181Z,101589.41
2023-05-13T11:22:36.930Z,101572.59
2023-05-13T11:25:41.279Z,101564.16
2023-05-13T11:29:06.938Z,101567.47
2023-05-13T11:32:10.041Z,101571.13
2023-05-13T11:35:15.148Z,101551.53
2023-05-13T11:38:25.292Z,101556.63
2023-05-13T11:41:33.192Z,101558.03
2023-05-13T11:44:36.566Z,101563.47
2023-05-13T11:47:39.628Z,101564.69
2023-05-13T11:50:42.839Z,101546.59
2023-05-13T11:53:45.991Z,101553.47
2023-05-13T11:56:50.556Z,101540.16
2023-05-13T11:59:57.951Z,101545.94
2023-05-13T12:03:03.468Z,101543.53
2023-05-13T12:06:07.128Z,101550.06
2023-05-13T12:09:12.728Z,101544.91
2023-05-13T12:12:18.136Z,101543.19
2023-05-13T12:15:23.221Z,101542.97
2023-05-13T12:18:26.622Z,101547.47
2023-05-13T12:21:34.452Z,101544.09
2023-05-13T12:24:37.590Z,101549.22
2023-05-13T12:27:41.850Z,101530.78
2023-05-13T12:30:52.239Z,101533.16
2023-05-13T12:33:55.297Z,101552.22
2023-05-13T12:36:58.406Z,101544.84
2023-05-13T12:40:22.934Z,101547.19
2023-05-13T12:43:35.858Z,101550.09
2023-05-13T12:46:40.229Z,101544.59
2023-05-13T12:49:54.098Z,101553.59
2023-05-13T12:52:59.860Z,101538.50
2023-05-13T12:56:03.417Z,101537.16
2023-05-13T12:59:09.018Z,101535.09
2023-05-13T13:02:12.061Z,101544.22
2023-05-13T13:05:15.211Z,101552.19
2023-05-13T13:08:18.670Z,101541.59
2023-05-13T13:11:22.294Z,101533.03
2023-05-13T13:14:26.555Z,101542.41
2023-05-13T13:17:33.738Z,101533.84
2023-05-13T13:20:37.660Z,101520.94
2023-05-13T13:28:18.108Z,101529.25
2023-05-13T13:31:22.479Z,101534.53
2023-05-13T13:34:25.441Z,101526.97
2023-05-13T13:37:28.609Z,101526.53
2023-05-13T13:40:31.607Z,101538.31
2023-05-13T13:43:34.626Z,101530.75
2023-05-13T13:46:39.059Z,101517.72
2023-05-13T13:49:42.250Z,101505.47
2023-05-13T13:52:48.370Z,101520.22
2023-05-13T13:55:51.399Z,101511.22
2023-05-13T13:58:54.416Z,101511.25
2023-05-13T14:01:59.066Z,101506.91
2023-05-13T14:05:02.462Z,101503.41
2023-05-13T14:08:06.367Z,101479.63
2023-05-13T14:11:09.373Z,101492.81
2023-05-13T14:14:13.912Z,101500.69
2023-05-13T14:17:18.329Z,101498.94
2023-05-13T14:20:22.199Z,101496.53
2023-05-13T14:23:25.464Z,101483.44
2023-05-13T14:26:28.630Z,101475.13
2023-05-13T14:29:32.127Z,101470.53
2023-05-13T14:32:36.563Z,101478.59
2023-05-13T14:35:39.544Z,101480.72
2023-05-13T14:38:42.744Z,101478.34
2023-05-13T14:41:46.144Z,101470.50
2023-05-13T14:44:49.330Z,101487.78
2023-05-13T14:47:54.130Z,101478.72
2023-05-13T14:50:57.538Z,101485.97
2023-05-13T14:54:00.570Z,101474.69
2023-05-13T14:57:03.884Z,101475.03
2023-05-13T15:00:08.834Z,101465.75
2023-05-13T15:03:13.481Z,101472.81
2023-05-13T15:06:16.775Z,101476.25
2023-05-13T15:09:19.956Z,101485.28
2023-05-13T15:12:23.141Z,101476.34
2023-05-13T15:15:26.300Z,101483.28
2023-05-13T15:18:30.920Z,101480.56
2023-05-13T15:21:34.078Z,101474.44
2023-05-13T15:24:37.364Z,101480.19
2023-05-13T15:27:40.946Z,101474.69
2023-05-13T15:30:44.948Z,101477.25
2023-05-13T15:33:49.801Z,101475.63
2023-05-13T15:36:52.919Z,101464.28
2023-05-13T15:39:55.948Z,101473.72
2023-05-13T15:42:58.854Z,101481.47
2023-05-13T15:46:01.990Z,101474.38
2023-05-13T15:49:06.672Z,101487.16
2023-05-13T15:52:10.083Z,101487.78
2023-05-13T15:55:13.176Z,101491.72
2023-05-13T15:58:16.317Z,101493.09
2023-05-13T16:01:19.331Z,101506.03
2023-05-13T16:04:23.879Z,101507.19
2023-05-13T16:07:29.040Z,101517.63
2023-05-13T16:10:32.042Z,101512.84
2023-05-13T16:13:35.303Z,101512.81
2023-05-13T16:16:38.649Z,101517.41
2023-05-13T16:19:43.121Z,101516.22
2023-05-13T16:22:46.242Z,101530.78
2023-05-13T16:25:49.461Z,101553.53
2023-05-13T16:28:52.931Z,101544.13
2023-05-13T16:31:57.072Z,101555.59
2023-05-13T16:35:02.326Z,101560.19
2023-05-13T16:38:05.256Z,101554.31
2023-05-13T16:41:08.455Z,101553.75
2023-05-13T16:44:12.117Z,101558.66
2023-05-13T16:47:15.598Z,101549.06
2023-05-13T16:50:20.204Z,101551.09
2023-05-13T16:53:23.678Z,101552.75
2023-05-13T16:56:26.620Z,101547.31
2023-05-13T16:59:32.816Z,101548.75
2023-05-13T17:02:50.967Z,101538.38
2023-05-13T17:05:55.544Z,101542.19
2023-05-13T17:08:58.600Z,101535.41
2023-05-13T17:12:01.621Z,101536.59
2023-05-13T17:15:05.602Z,101539.94
2023-05-13T17:18:08.774Z,101536.66
2023-05-13T17:21:13.285Z,101548.50
2023-05-13T17:24:16.622Z,101535.31
2023-05-13T17:27:19.572Z,101543.78
2023-05-13T17:30:23.024Z,101535.47
2023-05-13T17:33:26.107Z,101549.41
2023-05-13T17:36:32.548Z,101555.03
2023-05-13T17:39:35.689Z,101552.97
2023-05-13T17:42:38.875Z,101549.41
2023-05-13T17:45:45.051Z,101560.94
2023-05-13T17:48:48.192Z,101550.41
2023-05-13T17:51:52.573Z,101554.72
2023-05-13T17:54:55.736Z,101561.31
2023-05-13T17:57:59.793Z,101549.38
2023-05-13T18:01:03.167Z,101556.00
2023-05-13T18:04:06.494Z,101553.25
2023-05-13T18:07:10.964Z,101552.28
2023-05-13T18:10:14.219Z,101556.31
2023-05-13T18:13:17.222Z,101557.09
2023-05-13T18:16:20.557Z,101562.25
2023-05-13T18:19:23.598Z,101557.78
2023-05-13T18:22:27.976Z,101560.41
2023-05-13T18:25:33.579Z,101567.91
2023-05-13T18:28:38.340Z,101568.16
2023-05-13T18:31:41.688Z,101563.94
2023-05-13T18:34:44.727Z,101568.44
2023-05-13T18:37:49.106Z,101570.13
2023-05-13T18:40:52.322Z,101567.06
2023-05-13T18:43:58.119Z,101564.09
2023-05-13T18:47:01.127Z,101564.28
2023-05-13T18:50:04.514Z,101567.06
2023-05-13T18:53:08.809Z,101557.56
2023-05-13T18:56:12.004Z,101562.78
2023-05-13T18:59:15.087Z,101567.72
2023-05-13T19:02:18.334Z,101572.66
2023-05-13T19:05:21.452Z,101577.72
2023-05-13T19:08:25.789Z,101575.09
2023-05-13T19:11:28.826Z,101582.59
2023-05-13T19:14:31.758Z,101579.59
2023-05-13T19:17:40.263Z,101579.97
2023-05-13T19:20:46.290Z,101574.00
2023-05-13T19:23:51.260Z,101576.22
2023-05-13T19:26:57.029Z,101579.75
2023-05-13T19:30:01.410Z,101583.41
2023-05-13T19:33:05.643Z,101579.69
2023-05-13T19:36:10.710Z,101586.66
2023-05-13T19:39:16.501Z,101579.50
2023-05-13T19:42:19.547Z,101578.53
2023-05-13T19:45:22.609Z,101583.91
2023-05-13T19:48:30.149Z,101582.91
2023-05-13T19:51:33.511Z,101581.09
2023-05-13T19:54:38.209Z,101580.16
2023-05-13T19:57:42.564Z,101592.22
2023-05-13T20:00:46.305Z,101593.38
2023-05-13T20:03:49.433Z,101596.00
2023-05-13T20:06:52.985Z,101593.22
2023-05-13T20:09:57.477Z,101587.00
2023-05-13T20:13:01.740Z,101591.16
2023-05-13T20:16:04.884Z,101592.56
2023-05-13T20:19:08.393Z,101589.44
2023-05-13T20:22:11.847Z,101591.56
2023-05-13T20:25:16.674Z,101595.59
2023-05-13T20:28:19.627Z,101593.75
2023-05-13T20:31:23.070Z,101592.03
2023-05-13T20:34:26.192Z,101594.47
2023-05-13T20:37:29.436Z,101591.63
2023-05-13T20:40:33.911Z,101597.88
2023-05-13T20:43:37.358Z,101597.22
2023-05-13T20:46:40.454Z,101594.41
2023-05-13T20:49:44.545Z,101598.06
2023-05-13T20:52:47.618Z,101598.06
2023-05-13T20:55:51.961Z,101594.53
2023-05-13T20:58:55.282Z,101595.81
2023-05-13T21:01:58.515Z,101592.03
2023-05-13T21:05:01.644Z,101586.41
2023-05-13T21:08:05.090Z,101588.06
2023-05-13T21:11:09.756Z,101584.53
2023-05-13T21:14:12.797Z,101588.28
2023-05-13T21:17:21.209Z,101578.97
2023-05-13T21:20:24.680Z,101587.25
2023-05-13T21:23:27.930Z,101584.34
2023-05-13T21:26:32.385Z,101591.25
2023-05-13T21:29:35.486Z,101588.31
2023-05-13T21:32:38.545Z,101589.91
2023-05-13T21:35:41.697Z,101585.69
2023-05-13T21:38:45.023Z,101587.06
2023-05-13T21:41:49.577Z,101584.97
2023-05-13T21:44:53.216Z,101587.06
2023-05-13T21:47:56.331Z,101575.13
2023-05-13T21:50:59.390Z,101577.31
2023-05-13T21:54:02.382Z,101579.72
2023-05-13T21:57:08.893Z,101585.91
2023-05-13T22:00:15.261Z,101578.06
2023-05-13T22:03:21.478Z,101580.97
2023-05-13T22:06:24.668Z,101583.00
2023-05-13T22:09:27.674Z,101576.69
2023-05-13T22:12:32.044Z,101576.38
2023-05-13T22:15:35.473Z,101578.25
2023-05-13T22:18:39.097Z,101576.06
2023-05-13T22:21:42.218Z,101572.84
2023-05-13T22:24:45.328Z,101572.81
2023-05-13T22:27:51.382Z,101573.75
2023-05-13T22:30:55.344Z,101564.84
2023-05-13T22:33:58.411Z,101564.41
2023-05-13T22:37:02.501Z,101570.69
2023-05-13T22:40:07.441Z,101575.16
2023-05-13T22:43:11.740Z,101567.63
2023-05-13T22:46:14.872Z,101567.72
2023-05-13T22:49:20.356Z,101566.25
2023-05-13T22:52:23.433Z,101570.03
2023-05-13T22:55:26.360Z,101565.16
2023-05-13T22:58:30.764Z,101574.19
2023-05-13T23:01:33.805Z,101566.75
2023-05-13T23:04:37.199Z,101565.78
2023-05-13T23:07:40.475Z,101563.47
2023-05-13T23:10:43.561Z,101560.53
2023-05-13T23:13:47.797Z,101562.28
2023-05-13T23:16:50.738Z,101556.50
2023-05-13T23:19:53.802Z,101562.16
2023-05-13T23:22:56.963Z,101557.13
2023-05-13T23:25:59.931Z,101548.63
2023-05-13T23:29:04.379Z,101548.75
2023-05-13T23:32:08.080Z,101556.03
2023-05-13T23:35:11.637Z,101554.75
2023-05-13T23:38:14.593Z,101552.16
2023-05-13T23:41:17.978Z,101556.00
2023-05-13T23:44:22.497Z,101552.72
2023-05-13T23:47:28.375Z,101546.94
2023-05-13T23:50:31.436Z,101544.63
2023-05-13T23:53:34.801Z,101548.19
2023-05-13T23:56:37.725Z,101542.13
2023-05-13T23:59:42.105Z,101538.03
